Accueil
METAR-TAF:

METAR-TAF

Aéroports :

Lydd, Angleterre

Aéroport de Lydd

latitude: 50-57N, longitude: 000-56E, altitude: 3 m

Observation

Le bulletin a été fait il y a 44 minutes, à 23:50 UTC
Vent 11 kt de nord-est
Température 3°C
Humidité 87%
Pression 1024 hPa
Visibilité 10 km ou plus

METAR: EGMD 212350Z AUTO 04011KT 9999 SCT021/// BKN027/// 03/01 Q1024

Heure: 00:34 (00:34 UTC)

Prévision

Le bulletin a été fait il y a 1 heure et 37 minutes, à 22:57 UTC
Prévision valable du 22 à 00 UTC au 22 à 09 UTC
Vent 9 kt de nord-est
Visibilité 10 km ou plus
Nuages épars à une hauteur de 3000 ft
Temporairement
du 22 à 00 UTC au 22 à 09 UTC
Visibilité: 6000 m
Probabilité 40%
du 22 à 00 UTC au 22 à 02 UTC
Visibilité: 4500 m
brume

TAF: EGMD 212257Z 2200/2209 05009KT 9999 SCT030 TEMPO 2200/2209 6000 PROB40 2200/2202 4500 BR

Observations et prévisions météorologiques de plus de 4000 aéroports (messages METAR et TAF).

Les stations disponibles sont représentées par des disques jaunes et rouges sur la carte.

Passer la souris dessus pour voir le nom de la station.

Cliquer dessus pour voir les observations et prévisions météorologiques.

Pour changer de carte: cliquez sur les boutons verts avec une croix noire pour zoomer, sur le bouton vert avec un tiret pour effectuer un zoom arrière, ou sur les flèches vertes pour les cartes adjacentes.


METAR-TAF: